Jump to content

  •  

DELTA AIRLINES FLIGHT DL1829 FLOWN ON 11-10-2017 BY CAPTAIN JIM BOERMAN

Pilot StatsCaptain Jim Boerman (LDP136) • 4,686.4 total hours • 1,423 total flights [View Logbook]
FLIGHT DETAILS
StatusReceived and approved on 2017-11-10 at 10:11:32
Origin AirportDetroit Metro Wayne Co (KDTW) • Detroit, Michigan, United States (646 feet MSL)
Filed Flight PlanKDTW CRL J43 VXV J46 AMG J45 YULEE J81 ORL J53 OHENU J81 PHK J53 HEDLY J81 BRIKL KMIA
Destination AirportMiami Intl (KMIA) • Miami, Florida, United States (8 feet MSL)
Alternate AirportSouthwest Florida Intl (KRSW) • Ft Myers, Florida, United States (30 feet MSL)
AirlineDelta Airlines
AircraftBoeing 737-700 | Winglets (73W / B737-700)
FS Aircraft UsedBoeing 737-700NGX DELTA N301DQ Winglets
Cruising AltitudeFL350
Distance Flown998 nautical miles
Passengers Onboard92 passengers (67.65% full)
DEPARTURE DETAILS
Time Out07:40:31
Taxi Data137,503 lbs total with 20,453 lbs of fuel onboard
Takeoff Data07:54:31 (14 minutes after leaving gate/ramp) • 136,866 lbs total • 11° pitch at 148 knots
Departure METARKDTW 101153Z 34008KT 10SM FEW045 M07/M13 A3052 RMK AO2 SLP343 T10721128 11039 21072 51030
ARRIVAL DETAILS
Landing Data10:32:07 • 124,103 lbs total • 8° pitch doing 114 knots at a rate of -304.50 feet/minute with 6,614 lbs of fuel onboard
Time In10:42:12 (10 minutes after landing)
Ramp Weight123,664 lbs total
Total Fuel Used13,839 lbs
Total Block Time03:01:40 (3 hours) while 24 minutes were spent on the ground
Arrival METARKMIA 101453Z 04008G18KT 10SM BKN027 BKN060 29/22 A3001 RMK AO2 SLP162 T02940217 51010
MISCELLANEOUS DETAILS
LiveDISPATCH Version4.8.3.1
FS Version
FSUIPC Version5.12
OS VersionWindows 7 32-bit
Screen Resolution1920 x 1080
Pilot's CommentsNo Comments Reported
FLIGHT MAP